Main page
METAR-TAF:

METAR-TAF

Airports :

Fairfield County Airport

Lancaster, Ohio, United States

latitude: 39-45-26N, longitude: 082-39-48W, elevation: 866 ft

Current weather observation

The report was made 9 minutes ago, at 10:53 UTC
Calm wind
Temperature 19°F
Humidity 86%
Pressure 30.19 in. Hg
Visibility: 10 miles
Clear sky

METAR: KLHQ 231053Z AUTO 00000KT 10SM CLR M07/M09 A3019 RMK AO2 SLP232 T10671094

Time: 06:02 (11:02 UTC)


TAF: missing

Weather observations and forecasts of more than 4000 airports (METAR and TAF reports).

The available stations are represented by yellow and red dots on the map.

Hover mouse over dot to see the name of the station.

Then click to see weather observations and forecasts.

To change the map : click on the green buttons with a black cross to zoom in, on the green button with a dash to zoom out, or on the green arrows for adjacent maps.


METAR-TAF: